createdAt,value
2019-03-10T00:06:44.163Z,15.20
2019-03-10T00:09:13.530Z,16.23
2019-03-10T00:11:42.872Z,14.47
2019-03-10T00:17:14.917Z,14.73
2019-03-10T00:19:44.270Z,19.83
2019-03-10T00:22:13.677Z,19.67
2019-03-10T00:30:48.128Z,17.47
2019-03-10T00:33:17.488Z,23.13
2019-03-10T00:35:46.828Z,17.77
2019-03-10T00:38:16.163Z,19.90
2019-03-10T00:41:24.323Z,25.33
2019-03-10T00:44:32.372Z,16.17
2019-03-10T00:47:39.612Z,18.03
2019-03-10T00:50:46.862Z,21.27
2019-03-10T00:53:15.515Z,18.97
2019-03-10T00:55:44.841Z,17.60
2019-03-10T00:58:14.263Z,16.83
2019-03-10T01:00:43.605Z,17.43
2019-03-10T01:03:12.936Z,17.03
2019-03-10T01:05:42.351Z,17.50
2019-03-10T01:08:11.928Z,15.87
2019-03-10T01:10:41.258Z,15.97
2019-03-10T01:13:10.602Z,18.07
2019-03-10T01:24:46.526Z,20.67
2019-03-10T01:27:15.845Z,21.10
2019-03-10T01:29:45.183Z,20.67
2019-03-10T01:32:53.236Z,17.53
2019-03-10T01:35:25.388Z,18.33
2019-03-10T01:40:56.991Z,17.67
2019-03-10T01:43:26.331Z,17.23
2019-03-10T01:45:55.660Z,13.63
2019-03-10T01:48:25.009Z,17.70
2019-03-10T01:50:54.374Z,20.93
2019-03-10T01:53:25.749Z,20.33
2019-03-10T01:56:13.006Z,17.57
2019-03-10T01:58:42.384Z,16.80
2019-03-10T02:01:11.691Z,18.90
2019-03-10T02:03:41.064Z,13.83
2019-03-10T02:06:20.661Z,19.27
2019-03-10T02:08:50.013Z,15.27
2019-03-10T02:11:19.400Z,17.77
2019-03-10T02:16:50.860Z,14.97
2019-03-10T02:19:20.202Z,18.47
2019-03-10T02:21:49.551Z,14.83
2019-03-10T02:24:23.820Z,13.67
2019-03-10T02:27:08.251Z,20.37
2019-03-10T02:29:37.579Z,16.67
2019-03-10T02:32:06.920Z,15.80
2019-03-10T02:34:36.272Z,15.77
2019-03-10T02:37:05.618Z,19.40
2019-03-10T02:39:34.953Z,16.23
2019-03-10T02:42:04.287Z,17.33
2019-03-10T02:44:33.640Z,19.27
2019-03-10T02:47:02.979Z,14.77
2019-03-10T02:52:35.291Z,16.17
2019-03-10T02:55:05.082Z,18.73
2019-03-10T02:57:34.417Z,22.43
2019-03-10T03:00:06.019Z,20.70
2019-03-10T03:05:37.496Z,17.57
2019-03-10T03:08:06.861Z,16.83
2019-03-10T03:10:36.204Z,15.30
2019-03-10T03:13:05.676Z,15.13
2019-03-10T03:15:35.000Z,12.73
2019-03-10T03:18:04.450Z,15.90
2019-03-10T03:20:33.797Z,15.40
2019-03-10T03:23:03.147Z,11.57
2019-03-10T03:25:32.498Z,15.73
2019-03-10T03:28:01.860Z,12.63
2019-03-10T03:30:31.228Z,11.47
2019-03-10T03:33:00.645Z,11.23
2019-03-10T03:35:50.316Z,16.40
2019-03-10T03:38:22.929Z,19.20
2019-03-10T03:43:55.979Z,21.90
2019-03-10T03:46:25.324Z,20.47
2019-03-10T03:48:54.656Z,16.03
2019-03-10T03:51:23.981Z,12.20
2019-03-10T03:53:53.315Z,14.17
2019-03-10T03:56:22.661Z,15.50
2019-03-10T03:58:52.011Z,11.27
2019-03-10T04:01:24.988Z,12.63
2019-03-10T04:06:56.577Z,11.73
2019-03-10T04:09:25.925Z,16.73
2019-03-10T04:11:55.239Z,12.83
2019-03-10T04:14:24.581Z,16.57
2019-03-10T04:16:53.935Z,14.43
2019-03-10T04:19:23.281Z,14.77
2019-03-10T04:27:57.526Z,12.03
2019-03-10T04:30:26.858Z,14.40
2019-03-10T04:32:56.189Z,16.33
2019-03-10T04:35:25.524Z,14.80
2019-03-10T04:37:54.856Z,12.80
2019-03-10T04:40:24.187Z,16.03
2019-03-10T04:42:53.532Z,19.80
2019-03-10T04:45:22.855Z,15.37
2019-03-10T04:47:52.188Z,17.93
2019-03-10T04:50:21.515Z,24.97
2019-03-10T04:52:50.904Z,19.80
2019-03-10T04:55:39.812Z,15.67
2019-03-10T05:03:47.401Z,19.20
2019-03-10T05:06:16.758Z,17.83
2019-03-10T05:08:46.095Z,13.67
2019-03-10T05:11:15.492Z,17.07
2019-03-10T05:16:47.185Z,14.73
2019-03-10T05:19:16.509Z,16.03
2019-03-10T05:21:45.859Z,19.43
2019-03-10T05:24:15.322Z,16.77
2019-03-10T05:26:44.667Z,18.20
2019-03-10T05:32:16.484Z,23.37
2019-03-10T05:34:45.811Z,20.10
2019-03-10T05:37:15.161Z,16.10
2019-03-10T05:39:44.507Z,14.97
2019-03-10T05:42:25.679Z,19.97
2019-03-10T05:44:54.321Z,21.10
2019-03-10T05:47:22.867Z,15.40
2019-03-10T05:49:52.225Z,16.17
2019-03-10T05:52:21.582Z,14.90
2019-03-10T05:54:50.943Z,13.47
2019-03-10T05:57:20.281Z,11.13
2019-03-10T05:59:49.623Z,14.77
2019-03-10T06:02:18.969Z,12.10
2019-03-10T06:04:48.612Z,27.50
2019-03-10T06:07:17.942Z,12.70
2019-03-10T06:09:47.283Z,14.00
2019-03-10T06:12:16.629Z,12.30
2019-03-10T06:14:45.986Z,15.30
2019-03-10T06:17:15.304Z,17.63
2019-03-10T06:19:44.674Z,10.50
2019-03-10T06:22:14.016Z,14.37
2019-03-10T06:24:43.406Z,12.80
2019-03-10T06:27:12.758Z,10.53
2019-03-10T06:29:42.128Z,8.83
2019-03-10T06:35:14.168Z,9.63
2019-03-10T06:37:43.502Z,6.50
2019-03-10T06:43:15.505Z,6.00
2019-03-10T06:45:44.856Z,8.33
2019-03-10T06:51:16.351Z,10.13
2019-03-10T06:56:48.444Z,9.30
2019-03-10T06:59:17.757Z,3.90
2019-03-10T07:01:59.253Z,5.33
2019-03-10T07:04:27.913Z,5.47
2019-03-10T07:06:57.297Z,8.90
2019-03-10T07:09:26.656Z,6.23
2019-03-10T07:11:56.007Z,9.07
2019-03-10T07:14:25.335Z,4.23
2019-03-10T07:19:56.452Z,6.63
2019-03-10T07:22:25.810Z,8.47
2019-03-10T07:24:55.144Z,6.60
2019-03-10T07:30:39.855Z,6.50
2019-03-10T07:33:24.479Z,6.13
2019-03-10T07:36:13.260Z,5.40
2019-03-10T07:38:48.412Z,5.93
2019-03-10T07:41:33.337Z,8.27
2019-03-10T07:44:08.107Z,5.30
2019-03-10T07:46:56.308Z,5.30
2019-03-10T07:49:45.228Z,5.73
2019-03-10T07:52:34.077Z,6.07
2019-03-10T07:55:15.103Z,8.87
2019-03-10T07:58:03.210Z,3.90
2019-03-10T08:00:52.077Z,9.37
2019-03-10T08:06:34.548Z,3.77
2019-03-10T08:11:58.736Z,6.23
2019-03-10T08:17:49.696Z,5.50
2019-03-10T08:20:37.709Z,5.87
2019-03-10T08:23:26.530Z,3.50
2019-03-10T08:29:17.618Z,5.03
2019-03-10T08:32:06.405Z,6.00
2019-03-10T08:34:54.494Z,4.93
2019-03-10T08:37:30.747Z,7.00
2019-03-10T08:40:18.736Z,4.53
2019-03-10T08:43:06.874Z,4.23
2019-03-10T08:48:42.730Z,8.17
2019-03-10T08:51:31.502Z,7.27
2019-03-10T08:54:20.313Z,4.03
2019-03-10T08:57:09.099Z,3.90
2019-03-10T08:59:57.101Z,5.57
2019-03-10T09:02:45.963Z,3.37
2019-03-10T09:05:34.750Z,5.30
2019-03-10T09:08:22.843Z,4.83
2019-03-10T09:11:10.846Z,6.27
2019-03-10T09:13:58.938Z,3.83
2019-03-10T09:16:47.943Z,5.33
2019-03-10T09:19:35.947Z,6.13
2019-03-10T09:22:24.019Z,4.80
2019-03-10T09:25:12.005Z,6.87
2019-03-10T09:27:52.931Z,5.70
2019-03-10T09:30:41.739Z,6.17
2019-03-10T09:33:29.822Z,5.20
2019-03-10T09:36:17.931Z,3.57
2019-03-10T09:39:06.728Z,4.80
2019-03-10T09:41:54.817Z,5.07
2019-03-10T09:44:43.663Z,6.20
2019-03-10T09:47:32.501Z,3.43
2019-03-10T09:50:11.804Z,4.97
2019-03-10T09:53:00.648Z,3.17
2019-03-10T09:55:49.439Z,5.53
2019-03-10T09:58:32.237Z,7.23
2019-03-10T10:01:21.044Z,8.10
2019-03-10T10:04:09.866Z,6.63
2019-03-10T10:06:57.974Z,4.90
2019-03-10T10:12:48.769Z,4.40
2019-03-10T10:15:37.552Z,6.93
2019-03-10T10:18:26.448Z,4.97
2019-03-10T10:21:14.431Z,4.23
2019-03-10T10:24:03.233Z,5.10
2019-03-10T10:26:52.131Z,5.13
2019-03-10T10:29:40.937Z,5.10
2019-03-10T10:32:28.979Z,5.20
2019-03-10T10:35:17.927Z,5.40
2019-03-10T10:41:09.021Z,3.40
2019-03-10T10:43:57.929Z,6.80
2019-03-10T10:49:49.255Z,4.60
2019-03-10T10:52:38.080Z,3.93
2019-03-10T10:58:28.405Z,5.87
2019-03-10T11:01:16.637Z,4.27
2019-03-10T11:07:07.666Z,3.83
2019-03-10T11:09:56.564Z,3.57
2019-03-10T11:12:45.351Z,3.20
2019-03-10T11:15:33.442Z,2.73
2019-03-10T11:18:22.284Z,2.77
2019-03-10T11:21:10.424Z,6.97
2019-03-10T11:23:58.426Z,4.43
2019-03-10T11:26:47.223Z,3.60
2019-03-10T11:32:38.184Z,3.60
2019-03-10T11:35:22.477Z,4.13
2019-03-10T11:38:11.326Z,3.50
2019-03-10T11:41:00.124Z,3.37
2019-03-10T11:43:48.223Z,3.47
2019-03-10T11:46:37.430Z,3.80
2019-03-10T11:49:26.243Z,2.50
2019-03-10T11:52:02.216Z,2.30
2019-03-10T11:54:50.319Z,5.13
2019-03-10T11:57:38.326Z,3.27
2019-03-10T12:03:29.678Z,5.13
2019-03-10T12:06:17.782Z,3.63
2019-03-10T12:09:05.909Z,3.40
2019-03-10T12:11:35.265Z,3.80
2019-03-10T12:14:04.823Z,4.07
2019-03-10T12:16:34.176Z,4.33
2019-03-10T12:19:03.550Z,1.67
2019-03-10T12:21:32.862Z,2.93
2019-03-10T12:24:02.269Z,1.77
2019-03-10T12:26:31.626Z,4.37
2019-03-10T12:29:00.983Z,2.67
2019-03-10T12:31:30.333Z,1.80
2019-03-10T12:33:59.682Z,3.03
2019-03-10T12:36:29.054Z,3.07
2019-03-10T12:38:58.347Z,5.47
2019-03-10T12:41:27.703Z,4.10
2019-03-10T12:43:57.036Z,2.97
2019-03-10T12:46:26.374Z,2.20
2019-03-10T12:48:55.712Z,3.03
2019-03-10T12:51:25.039Z,1.87
2019-03-10T12:53:54.387Z,2.53
2019-03-10T12:56:23.785Z,2.33
2019-03-10T12:58:53.153Z,2.27
2019-03-10T13:01:22.558Z,3.03
2019-03-10T13:03:58.952Z,2.50
2019-03-10T13:06:41.958Z,6.27
2019-03-10T13:09:11.521Z,2.33
2019-03-10T13:11:41.073Z,4.03
2019-03-10T13:14:10.470Z,2.27
2019-03-10T13:16:39.924Z,3.13
2019-03-10T13:19:09.351Z,2.87
2019-03-10T13:21:38.724Z,4.40
2019-03-10T13:24:10.225Z,2.53
2019-03-10T13:26:41.556Z,3.23
2019-03-10T13:29:28.888Z,2.80
2019-03-10T13:31:58.356Z,4.73
2019-03-10T13:34:27.876Z,3.37
2019-03-10T13:36:57.228Z,2.00
2019-03-10T13:39:26.579Z,2.43
2019-03-10T13:41:55.920Z,3.97
2019-03-10T13:44:25.384Z,3.00
2019-03-10T13:46:54.727Z,3.30
2019-03-10T13:49:24.039Z,3.00
2019-03-10T13:51:53.411Z,2.90
2019-03-10T13:54:22.740Z,2.10
2019-03-10T13:56:52.102Z,2.63
2019-03-10T13:59:20.711Z,3.37
2019-03-10T14:01:50.050Z,3.47
2019-03-10T14:04:19.376Z,1.93
2019-03-10T14:06:48.816Z,3.40
2019-03-10T14:09:18.121Z,2.47
2019-03-10T14:11:47.492Z,2.37
2019-03-10T14:14:16.828Z,3.33
2019-03-10T14:16:46.192Z,3.47
2019-03-10T14:19:15.512Z,3.10
2019-03-10T14:21:44.964Z,3.33
2019-03-10T14:24:14.504Z,3.37
2019-03-10T14:26:43.041Z,3.93
2019-03-10T14:29:12.409Z,3.27
2019-03-10T14:31:41.753Z,2.33
2019-03-10T14:34:11.204Z,2.00
2019-03-10T14:36:40.542Z,2.63
2019-03-10T14:39:21.364Z,2.60
2019-03-10T14:41:49.915Z,3.77
2019-03-10T14:44:19.266Z,2.03
2019-03-10T14:46:48.617Z,2.07
2019-03-10T14:49:23.064Z,3.10
2019-03-10T14:52:07.179Z,1.87
2019-03-10T14:54:36.502Z,3.67
2019-03-10T14:57:05.825Z,2.17
2019-03-10T14:59:35.179Z,2.27
2019-03-10T15:02:04.708Z,2.83
2019-03-10T15:04:34.069Z,3.43
2019-03-10T15:07:03.498Z,2.60
2019-03-10T15:09:32.984Z,2.37
2019-03-10T15:12:02.305Z,5.70
2019-03-10T15:14:31.656Z,3.70
2019-03-10T15:17:02.240Z,4.80
2019-03-10T15:19:50.297Z,6.30
2019-03-10T15:22:19.619Z,4.60
2019-03-10T15:24:48.953Z,3.40
2019-03-10T15:27:23.320Z,4.73
2019-03-10T15:30:11.458Z,3.13
2019-03-10T15:32:39.991Z,6.03
2019-03-10T15:35:09.529Z,4.73
2019-03-10T15:37:38.882Z,3.37
2019-03-10T15:40:09.673Z,5.13
2019-03-10T15:42:38.208Z,4.80
2019-03-10T15:45:08.568Z,7.57
2019-03-10T15:47:37.209Z,8.87
2019-03-10T15:50:10.363Z,5.73
2019-03-10T15:52:39.820Z,6.23
2019-03-10T15:55:09.330Z,8.40
2019-03-10T15:57:49.352Z,11.73
2019-03-10T16:00:40.211Z,15.20
2019-03-10T16:03:08.955Z,16.40
2019-03-10T16:05:38.335Z,9.43
2019-03-10T16:08:07.684Z,11.63
2019-03-10T16:10:37.061Z,15.47
2019-03-10T16:13:06.415Z,20.17
2019-03-10T16:15:35.755Z,10.47
2019-03-10T16:18:05.129Z,19.90
2019-03-10T16:20:33.826Z,22.07
2019-03-10T16:23:03.255Z,35.73
2019-03-10T16:25:32.935Z,39.70
2019-03-10T16:28:02.326Z,15.93
2019-03-10T16:30:31.668Z,21.43
2019-03-10T16:33:01.051Z,40.40
2019-03-10T16:35:30.422Z,34.73
2019-03-10T16:37:59.758Z,37.53
2019-03-10T16:40:29.117Z,44.40
2019-03-10T16:42:58.467Z,11.87
2019-03-10T16:45:27.956Z,39.97
2019-03-10T16:47:57.907Z,12.27
2019-03-10T16:50:26.552Z,19.73
2019-03-10T16:53:07.405Z,12.80
2019-03-10T16:55:36.227Z,29.70
2019-03-10T16:58:05.816Z,15.90
2019-03-10T17:00:35.324Z,12.50
2019-03-10T17:03:04.991Z,18.97
2019-03-10T17:05:33.754Z,19.13
2019-03-10T17:08:02.578Z,17.50
2019-03-10T17:10:31.995Z,15.17
2019-03-10T17:13:01.626Z,29.10
2019-03-10T17:15:31.264Z,41.17
2019-03-10T17:18:00.899Z,21.23
2019-03-10T17:20:30.258Z,13.70
2019-03-10T17:22:59.590Z,15.83
2019-03-10T17:25:28.932Z,12.93
2019-03-10T17:27:58.502Z,12.47
2019-03-10T17:30:27.956Z,14.50
2019-03-10T17:32:57.459Z,13.40
2019-03-10T17:35:26.963Z,19.60
2019-03-10T17:37:56.363Z,16.23
2019-03-10T17:40:25.894Z,17.53
2019-03-10T17:42:55.421Z,16.90
2019-03-10T17:45:24.919Z,15.57
2019-03-10T17:47:54.267Z,16.37
2019-03-10T17:50:23.709Z,14.47
2019-03-10T17:52:53.381Z,17.07
2019-03-10T17:55:22.911Z,16.60
2019-03-10T18:00:54.643Z,17.63
2019-03-10T18:03:24.050Z,17.43
2019-03-10T18:05:53.588Z,17.90
2019-03-10T18:11:24.969Z,13.13
2019-03-10T18:13:54.383Z,17.40
2019-03-10T18:16:23.823Z,18.37
2019-03-10T18:18:53.273Z,15.17
2019-03-10T18:21:22.679Z,14.10
2019-03-10T18:23:52.213Z,13.37
2019-03-10T18:26:21.598Z,16.57
2019-03-10T18:28:51.121Z,16.80
2019-03-10T18:31:20.578Z,14.27
2019-03-10T18:33:50.067Z,13.07
2019-03-10T18:36:31.043Z,15.93
2019-03-10T18:38:59.759Z,17.23
2019-03-10T18:41:29.261Z,14.83
2019-03-10T18:43:58.650Z,13.60
2019-03-10T18:46:28.029Z,12.47
2019-03-10T18:48:57.733Z,17.60
2019-03-10T18:51:27.080Z,13.73
2019-03-10T18:53:56.455Z,16.80
2019-03-10T18:56:25.810Z,16.70
2019-03-10T18:58:55.157Z,14.73
2019-03-10T19:01:24.504Z,17.07
2019-03-10T19:03:53.836Z,18.03
2019-03-10T19:06:23.284Z,17.17
2019-03-10T19:08:52.769Z,13.70
2019-03-10T19:11:22.307Z,15.03
2019-03-10T19:13:51.803Z,16.20
2019-03-10T19:16:21.223Z,15.33
2019-03-10T19:18:50.620Z,14.93
2019-03-10T19:21:20.101Z,16.20
2019-03-10T19:23:49.498Z,13.20
2019-03-10T19:26:18.969Z,16.20
2019-03-10T19:28:48.500Z,14.07
2019-03-10T19:31:17.923Z,15.17
2019-03-10T19:33:47.373Z,14.90
2019-03-10T19:36:16.814Z,14.03
2019-03-10T19:38:45.588Z,15.00
2019-03-10T19:41:14.977Z,14.67
2019-03-10T19:43:44.344Z,15.03
2019-03-10T19:46:13.146Z,13.57
2019-03-10T19:51:43.934Z,13.60
2019-03-10T19:57:15.008Z,15.43
2019-03-10T19:59:44.556Z,14.70
2019-03-10T20:02:13.941Z,11.03
2019-03-10T20:04:43.429Z,14.03
2019-03-10T20:07:12.921Z,11.60
2019-03-10T20:09:42.324Z,13.70
2019-03-10T20:12:11.777Z,11.87
2019-03-10T20:14:41.401Z,11.60
2019-03-10T20:17:10.842Z,10.77
2019-03-10T20:19:40.252Z,13.00
2019-03-10T20:22:09.694Z,13.03
2019-03-10T20:24:38.435Z,12.53
2019-03-10T20:27:07.818Z,15.87
2019-03-10T20:29:37.338Z,12.17
2019-03-10T20:32:14.000Z,12.17
2019-03-10T20:34:56.230Z,11.03
2019-03-10T20:37:25.627Z,13.97
2019-03-10T20:39:55.065Z,11.53
2019-03-10T20:45:26.250Z,11.70
2019-03-10T20:47:56.748Z,10.57
2019-03-10T20:50:25.634Z,11.47
2019-03-10T20:52:55.166Z,10.37
2019-03-10T20:55:24.709Z,11.70
2019-03-10T20:57:54.062Z,11.23
2019-03-10T21:00:23.608Z,10.40
2019-03-10T21:02:53.035Z,10.93
2019-03-10T21:05:22.641Z,10.53
2019-03-10T21:07:52.120Z,9.90
2019-03-10T21:10:21.532Z,11.67
2019-03-10T21:12:50.979Z,11.03
2019-03-10T21:15:20.316Z,12.33
2019-03-10T21:17:49.748Z,9.83
2019-03-10T21:20:19.095Z,9.27
2019-03-10T21:22:48.692Z,10.90
2019-03-10T21:25:19.177Z,11.00
2019-03-10T21:30:50.479Z,8.20
2019-03-10T21:33:19.832Z,10.33
2019-03-10T21:35:49.216Z,10.50
2019-03-10T21:38:18.579Z,8.47
2019-03-10T21:40:47.915Z,9.83
2019-03-10T21:43:17.388Z,9.23
2019-03-10T21:45:46.745Z,7.97
2019-03-10T21:48:16.080Z,11.73
2019-03-10T21:50:45.466Z,7.97
2019-03-10T21:53:14.802Z,9.07
2019-03-10T21:55:44.142Z,8.93
2019-03-10T22:01:15.416Z,9.47
2019-03-10T22:03:56.443Z,8.57
2019-03-10T22:06:25.109Z,8.37
2019-03-10T22:08:54.465Z,7.13
2019-03-10T22:11:23.775Z,10.10
2019-03-10T22:13:53.108Z,8.23
2019-03-10T22:16:22.469Z,9.03
2019-03-10T22:18:51.798Z,9.83
2019-03-10T22:24:04.081Z,6.77
2019-03-10T22:26:33.424Z,7.40
2019-03-10T22:29:02.871Z,8.87
2019-03-10T22:31:32.209Z,9.57
2019-03-10T22:34:01.556Z,8.47
2019-03-10T22:36:30.896Z,7.10
2019-03-10T22:39:00.277Z,8.10
2019-03-10T22:44:31.691Z,8.47
2019-03-10T22:47:01.036Z,6.60
2019-03-10T22:49:30.367Z,7.67
2019-03-10T22:51:59.699Z,9.40
2019-03-10T23:03:35.070Z,8.23
2019-03-10T23:06:04.397Z,8.17
2019-03-10T23:08:33.729Z,8.20
2019-03-10T23:11:14.885Z,8.47
2019-03-10T23:16:47.127Z,8.73
2019-03-10T23:19:16.465Z,8.33
2019-03-10T23:21:45.807Z,7.33
2019-03-10T23:27:17.482Z,9.13
2019-03-10T23:29:46.899Z,7.03
2019-03-10T23:38:20.568Z,6.57
2019-03-10T23:58:43.976Z,6.17
